Time;durP1;ratioP1;P1;durP2;ratioP2;P2;SDS_P1;SDS_P2;PMS_P1;PMS_P2;Temp;Humidity;BMP_temperature;BMP_pressure;BME280_temperature;BME280_humidity;BME280_pressure;Samples;Min_cycle;Max_cycle;Signal;HPM_P1;HPM_P2
2022/02/02 00:02:09;;;;;;;23.50;5.15;;;6.80;99.90;;;;;;5087033;28;20040;-80
2022/02/02 00:04:42;;;;;;;38.60;5.65;;;6.80;99.90;;;;;;5084574;28;20085;-80
2022/02/02 00:07:21;;;;;;;44.47;7.00;;;6.80;99.90;;;;;;5084824;28;20181;-80
2022/02/02 00:09:56;;;;;;;37.53;6.80;;;6.80;99.90;;;;;;5083486;28;20100;-80
2022/02/02 00:12:40;;;;;;;30.70;6.65;;;6.70;99.90;;;;;;5085797;28;20054;-80
2022/02/02 00:18:06;;;;;;;27.85;4.10;;;6.80;99.90;;;;;;5084645;28;20040;-79
2022/02/02 00:20:39;;;;;;;36.63;4.80;;;6.80;99.90;;;;;;5082845;28;20061;-80
2022/02/02 00:23:13;;;;;;;21.38;3.90;;;6.70;99.90;;;;;;5084547;28;20108;-80
2022/02/02 00:25:48;;;;;;;18.15;3.20;;;6.80;99.90;;;;;;5084412;28;20106;-80
2022/02/02 00:28:24;;;;;;;21.75;4.07;;;6.80;99.90;;;;;;5064865;28;20052;-80
2022/02/02 00:30:49;;;;;;;15.75;3.03;;;6.70;99.90;;;;;;5068460;28;20043;-79
2022/02/02 00:33:20;;;;;;;14.40;2.85;;;6.70;99.90;;;;;;5086286;28;20441;-80
2022/02/02 00:35:57;;;;;;;20.38;2.72;;;6.70;99.90;;;;;;5084194;28;20079;-80
2022/02/02 00:38:23;;;;;;;14.15;2.05;;;6.70;99.90;;;;;;5083498;28;20055;-78
2022/02/02 00:40:48;;;;;;;18.13;2.85;;;6.70;99.90;;;;;;5083158;28;20466;-79
2022/02/02 00:43:14;;;;;;;16.08;2.92;;;6.60;99.90;;;;;;5083766;28;20040;-80
2022/02/02 00:45:44;;;;;;;20.58;3.20;;;6.60;99.90;;;;;;5087021;28;20051;-80
2022/02/02 00:48:11;;;;;;;22.80;3.33;;;6.60;99.90;;;;;;5085631;28;20130;-79
2022/02/02 00:50:37;;;;;;;18.95;3.38;;;6.60;99.90;;;;;;5084923;28;20510;-79
2022/02/02 00:53:03;;;;;;;29.65;5.60;;;6.60;99.90;;;;;;5085231;28;20044;-80
2022/02/02 00:55:28;;;;;;;20.65;3.47;;;6.60;99.90;;;;;;5084017;28;20032;-80
2022/02/02 00:57:54;;;;;;;23.85;3.88;;;6.60;99.90;;;;;;5085132;28;20161;-80
2022/02/02 01:00:20;;;;;;;27.95;4.47;;;6.70;99.90;;;;;;5082027;28;20123;-80
2022/02/02 01:02:46;;;;;;;26.33;4.57;;;6.60;99.90;;;;;;5084069;28;20047;-79
2022/02/02 01:05:12;;;;;;;26.58;5.43;;;6.60;99.90;;;;;;5082900;28;20036;-80
2022/02/02 01:08:09;;;;;;;26.25;5.47;;;6.70;99.90;;;;;;5081888;28;20040;-80
2022/02/02 01:10:37;;;;;;;20.92;3.58;;;6.60;99.90;;;;;;5086195;28;20069;-80
2022/02/02 01:21:00;;;;;;;27.85;4.00;;;6.60;99.90;;;;;;5079710;28;20193;-80
2022/02/02 01:28:41;;;;;;;22.02;4.22;;;6.70;99.90;;;;;;5083207;28;20127;-79
2022/02/02 01:31:07;;;;;;;29.10;3.83;;;6.70;99.90;;;;;;5081759;28;20080;-80
2022/02/02 01:33:33;;;;;;;18.98;3.40;;;6.80;99.90;;;;;;5082330;28;20048;-80
2022/02/02 01:35:59;;;;;;;21.65;3.50;;;6.80;99.90;;;;;;5083544;28;20047;-80
2022/02/02 01:38:29;;;;;;;24.27;4.28;;;6.80;99.90;;;;;;5086029;28;20039;-80
2022/02/02 01:41:03;;;;;;;11.57;2.40;;;6.80;99.90;;;;;;5086790;28;20036;-80
2022/02/02 01:43:33;;;;;;;20.98;3.25;;;6.80;99.90;;;;;;5080925;28;20509;-80
2022/02/02 01:46:06;;;;;;;21.58;3.35;;;6.90;99.90;;;;;;5081174;28;20048;-80
2022/02/02 01:48:44;;;;;;;23.42;4.53;;;6.80;99.90;;;;;;5083814;28;20046;-79
2022/02/02 01:56:12;;;;;;;22.25;3.72;;;6.80;99.90;;;;;;5079140;28;20136;-80
2022/02/02 02:01:03;;;;;;;26.60;5.43;;;6.80;99.90;;;;;;5084648;28;20051;-80
2022/02/02 02:03:29;;;;;;;25.65;4.43;;;6.80;99.90;;;;;;5082117;28;20047;-79
2022/02/02 02:05:55;;;;;;;23.30;3.42;;;6.80;99.90;;;;;;5081167;28;20036;-80
2022/02/02 02:08:21;;;;;;;22.92;3.88;;;6.90;99.90;;;;;;5079617;28;20048;-79
2022/02/02 02:10:46;;;;;;;24.63;4.63;;;6.90;99.90;;;;;;5087149;28;20474;-80
2022/02/02 02:13:41;;;;;;;27.77;5.57;;;7.00;99.90;;;;;;5087348;28;20127;-80
2022/02/02 02:16:05;;;;;;;23.50;4.78;;;6.90;99.90;;;;;;5081563;28;20555;-80
2022/02/02 02:18:31;;;;;;;24.55;4.88;;;6.90;99.90;;;;;;5083372;28;20119;-80
2022/02/02 02:20:57;;;;;;;25.75;4.40;;;6.80;99.90;;;;;;5063365;28;20043;-80
2022/02/02 02:23:24;;;;;;;32.85;5.00;;;6.80;99.90;;;;;;5080846;28;20405;-80
2022/02/02 02:25:50;;;;;;;23.77;4.63;;;6.80;99.90;;;;;;5085032;28;20123;-80
2022/02/02 02:28:35;;;;;;;30.98;4.80;;;6.60;99.90;;;;;;5079790;28;20119;-80
2022/02/02 02:31:09;;;;;;;38.60;6.10;;;6.70;99.90;;;;;;5083777;28;20525;-80
2022/02/02 02:39:27;;;;;;;26.67;4.72;;;6.50;99.90;;;;;;5081957;28;20040;-80
2022/02/02 02:58:58;;;;;;;27.23;5.15;;;6.50;99.90;;;;;;5036941;28;20048;-80
2022/02/02 03:31:58;;;;;;;25.13;4.05;;;6.70;99.90;;;;;;5081205;28;20044;-80
2022/02/02 03:34:56;;;;;;;36.80;4.87;;;6.70;99.90;;;;;;5080136;28;20086;-80
2022/02/02 03:49:25;;;;;;;30.15;5.47;;;6.70;99.90;;;;;;5080329;28;20048;-79
2022/02/02 03:51:31;;;;;;;30.00;5.28;;;6.80;99.90;;;;;;5081311;28;20083;-80
2022/02/02 04:06:25;;;;;;;29.20;6.03;;;6.80;99.90;;;;;;5083152;28;20073;-80
2022/02/02 04:08:50;;;;;;;31.27;4.90;;;6.80;99.90;;;;;;5085567;28;20094;-80
2022/02/02 04:11:46;;;;;;;31.85;5.50;;;6.90;99.90;;;;;;5081278;28;20398;-80
2022/02/02 04:15:07;;;;;;;28.67;4.93;;;6.80;99.90;;;;;;5083967;28;20130;-80
2022/02/02 04:55:20;;;;;;;25.25;3.60;;;6.60;99.90;;;;;;5085065;28;20052;-80
2022/02/02 05:08:33;;;;;;;20.95;3.42;;;6.50;99.90;;;;;;5088288;28;20410;-84
2022/02/02 05:16:39;;;;;;;23.70;3.65;;;6.50;99.90;;;;;;5088395;28;20144;-83
2022/02/02 05:45:33;;;;;;;28.98;4.00;;;6.40;99.90;;;;;;5090267;28;20414;-84
2022/02/02 05:53:20;;;;;;;21.07;3.33;;;6.40;99.90;;;;;;5087060;28;20570;-84
2022/02/02 05:55:46;;;;;;;30.48;5.03;;;6.40;99.90;;;;;;5086042;28;20294;-85
2022/02/02 05:58:12;;;;;;;22.75;3.75;;;5.90;99.90;;;;;;5087848;28;20039;-84
2022/02/02 06:00:39;;;;;;;27.02;3.63;;;6.40;99.90;;;;;;5085613;28;20119;-85
2022/02/02 06:03:10;;;;;;;17.77;3.50;;;6.40;99.90;;;;;;5089554;28;20477;-85
2022/02/02 06:05:37;;;;;;;18.58;3.40;;;6.30;99.90;;;;;;5081091;28;20047;-84
2022/02/02 06:08:06;;;;;;;21.80;3.33;;;6.30;99.90;;;;;;5085261;28;20044;-85
2022/02/02 06:10:32;;;;;;;21.23;4.38;;;6.40;99.90;;;;;;5088581;28;20508;-85
2022/02/02 06:13:00;;;;;;;19.73;3.92;;;6.40;99.90;;;;;;5088336;28;20032;-85
2022/02/02 06:15:26;;;;;;;22.80;3.35;;;6.40;99.90;;;;;;5088416;28;20093;-84
2022/02/02 06:17:53;;;;;;;27.58;5.13;;;6.30;99.90;;;;;;5086983;28;20032;-84
2022/02/02 06:20:20;;;;;;;28.80;3.95;;;6.40;99.90;;;;;;5087554;28;20040;-84
2022/02/02 06:23:00;;;;;;;25.13;3.83;;;6.30;99.90;;;;;;5085840;28;20056;-83
2022/02/02 06:25:32;;;;;;;29.17;3.78;;;6.20;99.90;;;;;;5086996;28;20033;-84
2022/02/02 06:28:09;;;;;;;24.88;4.35;;;6.30;99.90;;;;;;5082679;28;20040;-84
2022/02/02 06:30:35;;;;;;;35.53;4.93;;;6.30;99.90;;;;;;5089555;28;20119;-85
2022/02/02 06:33:03;;;;;;;20.63;5.00;;;6.30;99.90;;;;;;5087399;28;20051;-85
2022/02/02 06:35:30;;;;;;;27.95;4.38;;;6.20;99.90;;;;;;5085947;28;20036;-85
2022/02/02 06:37:55;;;;;;;24.10;3.63;;;6.30;99.90;;;;;;5088053;28;20036;-84
2022/02/02 06:40:23;;;;;;;24.90;5.50;;;6.30;99.90;;;;;;5086329;28;20541;-84
2022/02/02 06:42:50;;;;;;;22.65;4.75;;;6.20;99.90;;;;;;5083792;28;20056;-85
2022/02/02 06:45:16;;;;;;;27.67;6.15;;;6.20;99.90;;;;;;5100644;27;20036;-85
2022/02/02 06:47:44;;;;;;;18.85;3.45;;;6.20;99.90;;;;;;5091211;28;20039;-85
2022/02/02 06:50:19;;;;;;;28.20;4.57;;;6.30;99.90;;;;;;5083560;28;20075;-85
2022/02/02 06:53:23;;;;;;;26.90;3.53;;;6.30;99.90;;;;;;5084301;28;20043;-84
2022/02/02 06:58:58;;;;;;;21.33;3.45;;;6.30;99.90;;;;;;5083721;28;20082;-85
2022/02/02 07:01:48;;;;;;;30.38;4.55;;;6.20;99.90;;;;;;5082568;28;20478;-84
2022/02/02 07:05:07;;;;;;;28.17;3.55;;;6.30;99.90;;;;;;5082780;28;20036;-83
2022/02/02 07:10:40;;;;;;;26.90;4.32;;;6.30;99.90;;;;;;5085339;28;20035;-84
2022/02/02 07:21:01;;;;;;;25.63;3.70;;;6.30;99.90;;;;;;5082778;28;20044;-85
2022/02/02 07:26:45;;;;;;;27.40;3.75;;;6.30;99.90;;;;;;5046487;28;20100;-85
2022/02/02 07:29:20;;;;;;;28.88;5.22;;;6.40;99.90;;;;;;5080957;28;20086;-84
2022/02/02 07:34:31;;;;;;;36.47;6.28;;;6.40;99.90;;;;;;5081463;28;20073;-85
2022/02/02 07:37:02;;;;;;;19.90;3.83;;;6.50;99.90;;;;;;5084153;28;20047;-81
2022/02/02 07:39:29;;;;;;;29.45;4.22;;;6.50;99.90;;;;;;5080473;28;20820;-81
2022/02/02 07:42:01;;;;;;;25.77;3.80;;;6.50;99.90;;;;;;5082065;28;20044;-81
2022/02/02 07:44:30;;;;;;;26.70;4.45;;;6.50;99.90;;;;;;5079912;28;20041;-81
2022/02/02 07:46:59;;;;;;;33.95;6.90;;;6.50;99.90;;;;;;5077659;28;20054;-81
2022/02/02 07:49:33;;;;;;;22.88;3.63;;;6.50;99.90;;;;;;5079975;28;20041;-81
2022/02/02 07:51:58;;;;;;;30.42;4.75;;;6.50;99.90;;;;;;5079707;28;20072;-81
2022/02/02 07:54:30;;;;;;;26.77;4.70;;;6.50;99.90;;;;;;5078043;28;20075;-80
2022/02/02 07:56:57;;;;;;;26.38;4.10;;;6.50;99.90;;;;;;5081913;28;20079;-81
2022/02/02 07:59:34;;;;;;;32.60;5.95;;;6.50;99.90;;;;;;5077734;28;20040;-81
2022/02/02 08:02:03;;;;;;;31.85;5.00;;;6.50;99.90;;;;;;5078562;28;20044;-81
2022/02/02 08:04:30;;;;;;;23.65;4.38;;;6.50;99.90;;;;;;5080583;28;20068;-81
2022/02/02 08:06:57;;;;;;;27.00;4.15;;;6.50;99.90;;;;;;5077933;28;20047;-81
2022/02/02 08:09:30;;;;;;;29.73;5.35;;;6.50;99.90;;;;;;5083272;28;20040;-81
2022/02/02 08:11:57;;;;;;;24.60;4.32;;;6.50;99.90;;;;;;5082957;28;20118;-81
2022/02/02 08:14:24;;;;;;;25.55;4.05;;;6.50;99.90;;;;;;5082584;28;20496;-81
2022/02/02 08:16:50;;;;;;;22.98;4.40;;;6.60;99.90;;;;;;5082688;28;20043;-81
2022/02/02 08:19:17;;;;;;;39.13;6.32;;;6.60;99.90;;;;;;5084494;28;20048;-81
2022/02/02 08:21:44;;;;;;;21.35;3.97;;;6.60;99.90;;;;;;5082562;28;20051;-81
2022/02/02 08:24:11;;;;;;;31.17;4.82;;;6.60;99.90;;;;;;5086598;28;20498;-81
2022/02/02 08:26:37;;;;;;;37.80;5.20;;;6.60;99.90;;;;;;5084373;28;20131;-81
2022/02/02 08:29:03;;;;;;;25.33;4.28;;;6.60;99.90;;;;;;5083114;28;20131;-81
2022/02/02 08:31:29;;;;;;;32.17;4.38;;;6.60;99.90;;;;;;5083724;28;20107;-81
2022/02/02 08:33:59;;;;;;;25.15;4.57;;;6.70;99.90;;;;;;5083042;28;20047;-81
2022/02/02 08:36:26;;;;;;;25.42;3.88;;;6.70;99.90;;;;;;5081499;28;20575;-81
2022/02/02 08:39:00;;;;;;;25.52;4.63;;;6.70;99.90;;;;;;5088133;28;20040;-81
2022/02/02 08:41:33;;;;;;;20.55;3.35;;;6.70;99.90;;;;;;5082401;28;20044;-81
2022/02/02 08:44:04;;;;;;;25.85;3.63;;;6.80;99.90;;;;;;5085774;28;20083;-81
2022/02/02 08:48:58;;;;;;;28.63;4.97;;;6.80;99.90;;;;;;5084990;28;20043;-81
2022/02/02 08:51:28;;;;;;;24.58;3.83;;;6.90;99.90;;;;;;5085551;28;20093;-81
2022/02/02 08:54:08;;;;;;;24.67;4.18;;;6.90;99.90;;;;;;5081991;28;20124;-81
2022/02/02 09:01:51;;;;;;;25.15;4.05;;;7.00;99.90;;;;;;5083244;28;20133;-81
2022/02/02 09:07:02;;;;;;;17.65;3.42;;;7.00;99.90;;;;;;5086153;28;20067;-81
2022/02/02 09:10:07;;;;;;;21.65;3.67;;;7.10;99.90;;;;;;5085495;28;20043;-81
2022/02/02 09:34:05;;;;;;;26.02;4.80;;;7.30;99.90;;;;;;5064643;28;20443;-81
2022/02/02 09:36:34;;;;;;;15.43;3.13;;;7.40;99.90;;;;;;5082160;28;20048;-82
2022/02/02 09:39:06;;;;;;;27.23;3.85;;;7.50;99.90;;;;;;5084396;28;20509;-82
2022/02/02 09:44:03;;;;;;;27.00;3.92;;;7.70;99.90;;;;;;5083808;28;20038;-81
2022/02/02 09:46:36;;;;;;;25.38;4.03;;;7.70;99.90;;;;;;5066615;28;20046;-81
2022/02/02 09:49:08;;;;;;;22.85;3.90;;;7.70;99.90;;;;;;5082168;28;20092;-81
2022/02/02 09:51:48;;;;;;;23.20;3.70;;;7.70;99.90;;;;;;5082191;28;20036;-81
2022/02/02 10:05:55;;;;;;;;;;;8.00;99.90;;;;;;5082144;28;20059;-82
2022/02/02 10:08:08;;;;;;;15.43;2.67;;;8.10;99.90;;;;;;5079707;28;19920;-81
2022/02/02 10:10:52;;;;;;;21.10;3.38;;;8.10;99.90;;;;;;5083647;28;20049;-81
2022/02/02 10:13:25;;;;;;;21.08;2.65;;;8.20;99.90;;;;;;5083726;28;20056;-81
2022/02/02 10:16:21;;;;;;;22.85;3.22;;;8.30;99.90;;;;;;5085532;28;20099;-82
2022/02/02 10:18:47;;;;;;;14.02;2.60;;;8.30;99.90;;;;;;5082001;28;20470;-81
2022/02/02 10:21:13;;;;;;;14.52;3.60;;;8.40;99.90;;;;;;5082899;28;20036;-82
2022/02/02 10:23:41;;;;;;;18.42;3.25;;;8.50;99.90;;;;;;5081867;28;21894;-81
2022/02/02 10:26:41;;;;;;;18.55;3.78;;;8.60;99.90;;;;;;5082935;28;20059;-81
2022/02/02 10:29:09;;;;;;;21.13;3.95;;;8.70;99.90;;;;;;5085891;28;20046;-82
2022/02/02 10:31:49;;;;;;;17.35;2.97;;;8.80;99.90;;;;;;5081660;28;20639;-82
2022/02/02 10:34:17;;;;;;;13.23;2.42;;;8.80;99.90;;;;;;5084053;28;20044;-81
2022/02/02 10:36:44;;;;;;;22.52;3.92;;;8.80;99.90;;;;;;5079954;28;20559;-82
2022/02/02 10:39:15;;;;;;;17.60;2.78;;;8.80;99.90;;;;;;5081345;28;20039;-82
2022/02/02 10:41:50;;;;;;;22.15;3.00;;;8.70;99.90;;;;;;5088181;28;20048;-81
2022/02/02 10:44:38;;;;;;;17.35;3.00;;;8.60;99.90;;;;;;5081215;28;20028;-82
2022/02/02 10:47:23;;;;;;;16.30;2.28;;;8.70;99.90;;;;;;5086941;28;20040;-82
2022/02/02 10:49:58;;;;;;;15.85;2.67;;;8.70;99.90;;;;;;5083260;28;20077;-82
2022/02/02 10:52:55;;;;;;;21.02;3.28;;;8.70;99.90;;;;;;5077460;28;20032;-82
2022/02/02 10:58:27;;;;;;;18.27;3.20;;;8.90;99.90;;;;;;5080194;28;20048;-82
2022/02/02 11:06:38;;;;;;;22.00;3.05;;;9.00;99.90;;;;;;5077805;28;20087;-81
2022/02/02 11:09:12;;;;;;;20.17;2.80;;;9.00;99.90;;;;;;5080514;28;20051;-81
2022/02/02 11:11:47;;;;;;;14.05;2.08;;;8.90;99.90;;;;;;5079192;28;20037;-82
2022/02/02 11:14:36;;;;;;;18.67;2.65;;;9.00;99.90;;;;;;5078340;28;20109;-82
2022/02/02 11:17:16;;;;;;;13.27;2.03;;;9.00;99.90;;;;;;5080406;28;20052;-81
2022/02/02 11:19:47;;;;;;;13.32;1.92;;;9.00;99.90;;;;;;5080405;28;20087;-82
2022/02/02 11:22:31;;;;;;;13.20;2.70;;;9.00;99.90;;;;;;5083645;28;20442;-81
2022/02/02 11:25:22;;;;;;;16.30;2.97;;;9.10;99.90;;;;;;5083608;28;20075;-81
2022/02/02 11:27:50;;;;;;;16.77;2.63;;;9.00;99.90;;;;;;5078343;28;20036;-81
2022/02/02 11:30:25;;;;;;;13.07;1.88;;;9.10;99.90;;;;;;5081285;28;20054;-82
2022/02/02 11:33:21;;;;;;;19.33;3.50;;;9.20;99.90;;;;;;5081410;28;20028;-82
2022/02/02 11:35:50;;;;;;;16.98;2.85;;;9.20;99.90;;;;;;5070120;28;20056;-81
2022/02/02 11:38:28;;;;;;;14.00;2.58;;;9.20;99.90;;;;;;5076215;28;20040;-81
2022/02/02 11:43:48;;;;;;;12.75;2.33;;;9.20;99.90;;;;;;5076517;28;20048;-82
2022/02/02 11:46:51;;;;;;;17.08;2.72;;;9.20;99.90;;;;;;5081969;28;20048;-81
2022/02/02 11:49:42;;;;;;;12.88;2.05;;;9.10;99.90;;;;;;5084995;28;20481;-81
2022/02/02 11:52:31;;;;;;;14.18;1.98;;;9.10;99.90;;;;;;5086121;28;20040;-82
2022/02/02 11:54:56;;;;;;;15.23;1.70;;;9.10;99.90;;;;;;5086182;28;20049;-81
2022/02/02 11:57:25;;;;;;;15.77;2.55;;;9.00;99.90;;;;;;5082681;28;20041;-80
2022/02/02 12:00:11;;;;;;;12.98;2.08;;;9.10;99.90;;;;;;5087627;28;21223;-80
2022/02/02 12:03:09;;;;;;;;;;;9.10;99.90;;;;;;5073299;28;20152;-80
2022/02/02 12:57:22;;;;;;;12.15;1.60;;;9.60;99.90;;;;;;5084205;28;20043;-81
2022/02/02 13:02:19;;;;;;;16.65;2.00;;;9.60;99.90;;;;;;5086356;28;20054;-81
2022/02/02 13:04:56;;;;;;;20.58;3.67;;;9.80;99.90;;;;;;5082705;28;20489;-81
2022/02/02 13:07:26;;;;;;;11.77;2.40;;;9.90;99.90;;;;;;5087474;28;20074;-80
2022/02/02 13:09:53;;;;;;;20.25;3.00;;;9.80;99.90;;;;;;5083431;28;20386;-80
2022/02/02 13:12:45;;;;;;;20.45;2.28;;;9.90;99.90;;;;;;5084307;28;20054;-80
2022/02/02 13:20:43;;;;;;;;;;;9.80;99.90;;;;;;5085405;28;20564;-81
2022/02/02 13:23:33;;;;;;;11.00;2.60;;;9.80;99.90;;;;;;5078897;28;19920;-81
2022/02/02 13:26:04;;;;;;;14.48;2.33;;;9.80;99.90;;;;;;5085226;28;20498;-81
2022/02/02 13:28:42;;;;;;;14.55;3.15;;;9.70;99.90;;;;;;5082956;28;20040;-81
2022/02/02 13:31:09;;;;;;;12.10;2.30;;;9.80;99.90;;;;;;5085062;28;20031;-82
2022/02/02 13:33:40;;;;;;;17.08;3.05;;;9.80;99.90;;;;;;5079533;28;20032;-82
2022/02/02 13:36:21;;;;;;;15.93;3.63;;;9.70;99.90;;;;;;5080885;28;20127;-82
2022/02/02 13:50:39;;;;;;;14.75;2.72;;;9.80;99.90;;;;;;5046930;28;20048;-81
2022/02/02 13:59:01;;;;;;;19.23;3.08;;;10.30;99.90;;;;;;5086380;28;20040;-83
2022/02/02 14:31:16;;;;;;;18.52;3.38;;;9.90;99.90;;;;;;5086815;28;20067;-86
2022/02/02 14:33:45;;;;;;;20.45;3.38;;;10.00;99.90;;;;;;5085108;28;20047;-85
2022/02/02 14:36:17;;;;;;;18.50;4.22;;;10.00;99.90;;;;;;5085997;28;20044;-86
2022/02/02 14:49:11;;;;;;;16.10;3.35;;;10.00;99.90;;;;;;5082297;28;20068;-86
2022/02/02 14:52:02;;;;;;;20.30;3.03;;;9.90;99.90;;;;;;5082203;28;20119;-86
2022/02/02 15:23:56;;;;;;;20.67;2.97;;;9.40;99.90;;;;;;5083186;28;20079;-86
2022/02/02 15:25:10;;;;;;;12.75;2.75;;;9.30;99.90;;;;;;5081321;28;20044;-85
2022/02/02 15:27:39;;;;;;;18.73;3.08;;;9.20;99.90;;;;;;5083606;28;20366;-85
2022/02/02 15:32:52;;;;;;;14.65;2.53;;;9.10;99.90;;;;;;5083001;28;20040;-85
2022/02/02 15:35:20;;;;;;;17.85;2.58;;;9.00;99.90;;;;;;5084722;28;20036;-85
2022/02/02 15:38:15;;;;;;;12.30;2.05;;;8.90;99.90;;;;;;5084474;28;20038;-85
2022/02/02 15:40:45;;;;;;;15.27;3.30;;;8.90;99.90;;;;;;5082471;28;20048;-85
2022/02/02 15:59:05;;;;;;;13.50;2.65;;;8.40;99.90;;;;;;5084359;28;20044;-85
2022/02/02 16:04:11;;;;;;;15.25;2.13;;;8.20;99.90;;;;;;5083900;28;20055;-86
2022/02/02 16:06:37;;;;;;;14.82;2.90;;;8.10;99.90;;;;;;5085451;28;20039;-84
2022/02/02 16:09:18;;;;;;;14.48;2.00;;;8.00;99.90;;;;;;5079725;28;20036;-85
2022/02/02 16:11:46;;;;;;;12.43;2.13;;;8.00;99.90;;;;;;5081497;28;20510;-86
2022/02/02 16:14:22;;;;;;;17.10;2.33;;;7.90;99.90;;;;;;5086198;28;20037;-85
2022/02/02 16:17:12;;;;;;;7.53;1.30;;;7.80;99.90;;;;;;5081154;28;20652;-86
2022/02/02 16:24:42;;;;;;;15.68;1.90;;;7.70;99.90;;;;;;5083655;28;20509;-85
2022/02/02 16:25:29;;;;;;;14.95;1.83;;;7.60;99.90;;;;;;5087848;28;20055;-85
2022/02/02 16:36:07;;;;;;;12.43;1.50;;;7.30;99.90;;;;;;5084497;28;20056;-86
2022/02/02 16:38:35;;;;;;;10.00;1.80;;;7.20;99.90;;;;;;5084564;28;20048;-85
2022/02/02 16:41:09;;;;;;;10.18;1.92;;;7.10;99.90;;;;;;5091892;28;20653;-85
2022/02/02 16:43:34;;;;;;;14.57;1.70;;;7.10;99.90;;;;;;5089416;28;20377;-86
2022/02/02 16:46:00;;;;;;;14.88;1.90;;;7.10;99.90;;;;;;5092935;28;20111;-86
2022/02/02 16:48:26;;;;;;;15.30;2.13;;;7.00;99.90;;;;;;5087244;28;20066;-85
2022/02/02 16:50:55;;;;;;;13.73;2.75;;;6.90;99.90;;;;;;5079761;28;20051;-85
2022/02/02 16:53:27;;;;;;;10.15;1.50;;;6.90;99.90;;;;;;5080953;28;20509;-85
2022/02/02 16:56:14;;;;;;;12.88;2.00;;;6.80;99.90;;;;;;5082503;28;20059;-85
2022/02/02 17:31:01;;;;;;;15.05;3.28;;;6.30;99.90;;;;;;5079196;28;20486;-86
2022/02/02 17:36:34;;;;;;;12.00;2.45;;;6.20;99.90;;;;;;5015958;28;20102;-86
2022/02/02 17:39:07;;;;;;;16.80;2.55;;;6.10;99.90;;;;;;5099772;28;20067;-85
2022/02/02 17:44:21;;;;;;;12.80;2.88;;;6.00;99.90;;;;;;5085505;28;20502;-86
2022/02/02 17:59:21;;;;;;;12.95;2.15;;;5.70;99.90;;;;;;5086968;28;20170;-85
2022/02/02 18:19:22;;;;;;;23.20;4.18;;;5.30;99.90;;;;;;5084533;28;20077;-85
2022/02/02 18:21:49;;;;;;;21.05;2.33;;;5.40;99.90;;;;;;5089421;28;20072;-85
2022/02/02 18:24:25;;;;;;;17.02;3.53;;;5.30;99.90;;;;;;5088514;28;20038;-85
2022/02/02 18:27:01;;;;;;;19.40;3.17;;;5.30;99.90;;;;;;5084383;28;20048;-85
2022/02/02 18:29:42;;;;;;;16.88;3.25;;;5.30;99.90;;;;;;5072199;28;20048;-85
2022/02/02 18:34:46;;;;;;;18.63;4.22;;;5.30;99.90;;;;;;5089384;28;20094;-85
2022/02/02 18:43:24;;;;;;;23.88;3.88;;;5.30;99.90;;;;;;5084712;28;20044;-85
2022/02/02 18:48:24;;;;;;;14.68;3.13;;;5.20;99.90;;;;;;5086030;28;20055;-85
2022/02/02 18:59:12;;;;;;;22.05;4.80;;;5.10;99.90;;;;;;5088610;28;20040;-85
2022/02/02 19:04:12;;;;;;;21.98;5.40;;;5.10;99.90;;;;;;5088205;28;20044;-85
2022/02/02 19:06:55;;;;;;;20.38;4.90;;;5.10;99.90;;;;;;5083809;28;20556;-85
2022/02/02 19:40:03;;;;;;;22.77;4.47;;;5.10;99.90;;;;;;5088246;28;20044;-85
2022/02/02 19:56:23;;;;;;;25.88;5.78;;;5.20;99.90;;;;;;5086613;28;20059;-86
2022/02/02 20:04:45;;;;;;;17.63;4.35;;;5.20;99.90;;;;;;5087458;28;20078;-86
2022/02/02 20:10:24;;;;;;;22.40;5.85;;;5.30;99.90;;;;;;5088158;28;20040;-85
2022/02/02 20:12:48;;;;;;;26.95;6.05;;;5.40;99.90;;;;;;5087842;28;20041;-85
2022/02/02 20:15:14;;;;;;;21.27;6.00;;;5.40;99.90;;;;;;5091676;28;20068;-86
2022/02/02 20:17:42;;;;;;;22.08;5.05;;;5.40;99.90;;;;;;5087179;28;20043;-85
2022/02/02 20:20:15;;;;;;;20.23;5.70;;;5.50;99.90;;;;;;5086353;28;20513;-86
2022/02/02 20:22:41;;;;;;;24.73;5.75;;;5.50;99.90;;;;;;5090093;28;20044;-86
2022/02/02 20:25:08;;;;;;;27.00;5.38;;;5.60;99.90;;;;;;5088245;28;20055;-85
2022/02/02 20:27:36;;;;;;;24.63;5.88;;;5.70;99.90;;;;;;5086243;28;20043;-85
2022/02/02 20:30:04;;;;;;;29.45;6.35;;;5.70;99.90;;;;;;5085346;28;20040;-85
2022/02/02 20:32:29;;;;;;;26.40;5.72;;;6.60;99.90;;;;;;5093424;28;20040;-86
2022/02/02 20:34:55;;;;;;;27.92;5.63;;;5.80;99.90;;;;;;5086520;28;20028;-85
2022/02/02 20:37:21;;;;;;;26.05;5.38;;;5.90;99.90;;;;;;5084738;28;20123;-86
2022/02/02 20:39:56;;;;;;;28.17;7.10;;;5.90;99.90;;;;;;5090280;28;20032;-86
2022/02/02 20:42:33;;;;;;;25.00;7.00;;;6.00;99.90;;;;;;5089551;28;20169;-86
2022/02/02 21:14:39;;;;;;;38.13;9.35;;;6.30;99.90;;;;;;5089937;28;20059;-87
2022/02/02 21:17:08;;;;;;;28.17;7.45;;;6.30;99.90;;;;;;5085238;28;20401;-86
2022/02/02 21:20:20;;;;;;;34.10;9.93;;;6.40;99.90;;;;;;5087126;28;20386;-86
2022/02/02 21:22:28;;;;;;;43.65;10.00;;;6.30;99.90;;;;;;5077817;28;20047;-86
2022/02/02 21:25:07;;;;;;;38.78;9.43;;;6.30;99.90;;;;;;5086080;28;20105;-86
2022/02/02 21:27:40;;;;;;;34.63;9.85;;;6.40;99.90;;;;;;5090275;28;20111;-86
2022/02/02 21:30:08;;;;;;;38.85;11.07;;;6.40;99.90;;;;;;5085081;28;20036;-86
2022/02/02 21:32:35;;;;;;;36.78;10.23;;;6.40;99.90;;;;;;5085425;28;20114;-86
2022/02/02 21:35:07;;;;;;;40.45;11.35;;;6.40;99.90;;;;;;5085627;28;20032;-85
2022/02/02 21:37:34;;;;;;;43.88;12.20;;;6.40;99.90;;;;;;5087571;28;20028;-86
2022/02/02 21:40:18;;;;;;;46.00;11.55;;;6.40;99.90;;;;;;5086431;28;20034;-86
2022/02/02 21:42:49;;;;;;;42.92;12.63;;;6.50;99.90;;;;;;5084396;28;20040;-86
2022/02/02 21:45:16;;;;;;;44.13;12.80;;;6.50;99.90;;;;;;5090879;28;20040;-86
2022/02/02 21:47:42;;;;;;;44.38;14.75;;;6.50;99.90;;;;;;5087087;28;20036;-86
2022/02/02 21:50:12;;;;;;;42.08;13.43;;;6.50;99.90;;;;;;5088662;28;20370;-86
2022/02/02 21:52:38;;;;;;;31.88;13.27;;;6.60;99.90;;;;;;5085100;28;20083;-86
2022/02/02 21:55:06;;;;;;;42.63;13.82;;;6.60;99.90;;;;;;5086624;28;20377;-85
2022/02/02 21:57:32;;;;;;;43.25;14.38;;;6.60;99.90;;;;;;5087574;28;20119;-86
2022/02/02 21:59:58;;;;;;;43.42;15.65;;;6.60;99.90;;;;;;5087376;28;20123;-85
2022/02/02 22:02:24;;;;;;;43.80;15.07;;;6.70;99.90;;;;;;5102504;27;20035;-86
2022/02/02 22:04:50;;;;;;;38.85;15.05;;;6.70;99.90;;;;;;5088621;28;20031;-85
2022/02/02 22:07:15;;;;;;;40.90;15.93;;;6.70;99.90;;;;;;5087242;28;20546;-86
2022/02/02 22:09:44;;;;;;;44.90;16.55;;;6.80;99.90;;;;;;5086906;28;20043;-85
2022/02/02 22:12:12;;;;;;;44.33;16.30;;;6.80;99.90;;;;;;5087673;28;20592;-85
2022/02/02 22:14:37;;;;;;;40.22;15.73;;;6.80;99.90;;;;;;5081294;28;20077;-85
2022/02/02 22:17:04;;;;;;;44.05;16.17;;;6.80;99.90;;;;;;5086000;28;20444;-85
2022/02/02 22:19:30;;;;;;;37.78;17.42;;;6.80;99.90;;;;;;5081434;28;20048;-84
2022/02/02 22:21:56;;;;;;;47.58;17.83;;;6.90;99.90;;;;;;5086144;28;20046;-84
2022/02/02 22:24:22;;;;;;;42.28;19.73;;;7.00;99.90;;;;;;5085320;28;20028;-84
2022/02/02 22:26:49;;;;;;;40.63;18.52;;;7.00;99.90;;;;;;5081717;28;20047;-84
2022/02/02 22:29:14;;;;;;;41.85;19.23;;;7.00;99.90;;;;;;5081587;28;20042;-85
2022/02/02 22:31:41;;;;;;;38.20;19.23;;;7.00;99.90;;;;;;5082254;28;20035;-84
2022/02/02 22:34:06;;;;;;;36.83;18.75;;;7.10;99.90;;;;;;5084240;28;20051;-84
2022/02/02 22:36:32;;;;;;;41.83;20.08;;;7.10;99.90;;;;;;5086031;28;20040;-85
2022/02/02 22:38:58;;;;;;;36.38;19.73;;;7.10;99.90;;;;;;5069360;28;20044;-85
2022/02/02 22:41:24;;;;;;;29.88;18.95;;;7.10;99.90;;;;;;5085566;28;20093;-86
2022/02/02 22:43:52;;;;;;;37.00;18.92;;;7.20;99.90;;;;;;5084633;28;20036;-85
2022/02/02 22:46:23;;;;;;;35.20;20.10;;;7.20;99.90;;;;;;5083340;28;20079;-85
2022/02/02 22:48:48;;;;;;;32.47;18.77;;;7.20;99.90;;;;;;5085626;28;20036;-86
2022/02/02 22:51:14;;;;;;;40.70;19.83;;;7.20;99.90;;;;;;5084907;28;20044;-86
2022/02/02 22:53:40;;;;;;;44.05;21.50;;;7.30;99.90;;;;;;5081735;28;20052;-86
2022/02/02 22:56:05;;;;;;;38.05;20.10;;;7.20;99.90;;;;;;5081218;28;20077;-85
2022/02/02 22:58:31;;;;;;;33.67;19.30;;;7.20;99.90;;;;;;5084845;28;20169;-86
2022/02/02 23:00:57;;;;;;;41.25;21.88;;;7.10;99.90;;;;;;5083927;28;20032;-86
2022/02/02 23:03:24;;;;;;;38.70;20.63;;;7.30;99.90;;;;;;5082724;28;20036;-85
2022/02/02 23:05:57;;;;;;;42.22;21.58;;;7.40;99.90;;;;;;5083352;28;20397;-85
2022/02/02 23:08:25;;;;;;;51.50;24.45;;;7.40;99.90;;;;;;5079953;28;20525;-85
2022/02/02 23:10:51;;;;;;;54.08;25.83;;;7.30;99.90;;;;;;5081839;28;20040;-86
2022/02/02 23:13:17;;;;;;;50.30;25.52;;;7.40;99.90;;;;;;5088287;28;20077;-86
2022/02/02 23:15:54;;;;;;;58.75;28.73;;;7.40;99.90;;;;;;5083557;28;20056;-86
2022/02/02 23:18:23;;;;;;;65.63;29.80;;;7.50;99.90;;;;;;5087853;28;20035;-86
2022/02/02 23:20:55;;;;;;;69.80;31.75;;;7.50;99.90;;;;;;5086588;28;20037;-82
2022/02/02 23:23:26;;;;;;;60.92;29.77;;;7.60;99.90;;;;;;5083173;28;20051;-82
2022/02/02 23:25:54;;;;;;;73.10;32.67;;;7.50;99.90;;;;;;5082167;28;20048;-82